createdAt,value
2018-08-10T00:01:32.498Z,20.58
2018-08-10T00:04:03.514Z,20.74
2018-08-10T00:06:34.609Z,20.73
2018-08-10T00:09:08.545Z,20.53
2018-08-10T00:11:39.589Z,20.51
2018-08-10T00:14:10.521Z,20.50
2018-08-10T00:16:41.668Z,20.46
2018-08-10T00:19:12.645Z,20.50
2018-08-10T00:21:43.579Z,20.52
2018-08-10T00:24:14.524Z,20.63
2018-08-10T00:26:45.513Z,20.38
2018-08-10T00:29:16.542Z,20.35
2018-08-10T00:31:47.520Z,20.17
2018-08-10T00:34:18.489Z,20.31
2018-08-10T00:36:49.530Z,20.13
2018-08-10T00:39:20.483Z,20.20
2018-08-10T00:41:51.506Z,20.10
2018-08-10T00:44:22.499Z,20.02
2018-08-10T00:46:53.514Z,19.93
2018-08-10T00:49:24.551Z,19.95
2018-08-10T00:51:55.531Z,19.89
2018-08-10T00:54:26.497Z,19.75
2018-08-10T00:56:57.538Z,19.81
2018-08-10T00:59:28.507Z,19.59
2018-08-10T01:01:59.501Z,19.56
2018-08-10T01:04:31.352Z,19.63
2018-08-10T01:07:02.370Z,19.38
2018-08-10T01:09:33.397Z,19.53
2018-08-10T01:12:04.527Z,19.46
2018-08-10T01:14:37.558Z,19.47
2018-08-10T01:17:08.517Z,19.38
2018-08-10T01:19:39.502Z,19.32
2018-08-10T01:22:10.513Z,19.24
2018-08-10T01:24:41.503Z,19.06
2018-08-10T01:27:17.769Z,19.38
2018-08-10T01:29:48.565Z,19.01
2018-08-10T01:32:19.531Z,19.00
2018-08-10T01:34:50.501Z,18.97
2018-08-10T01:37:21.503Z,19.03
2018-08-10T01:39:52.510Z,19.03
2018-08-10T01:42:23.507Z,18.98
2018-08-10T01:44:54.547Z,18.94
2018-08-10T01:47:25.551Z,18.92
2018-08-10T01:49:56.490Z,18.86
2018-08-10T01:52:27.519Z,18.99
2018-08-10T01:54:58.476Z,18.70
2018-08-10T01:57:29.495Z,18.71
2018-08-10T02:00:00.625Z,18.70
2018-08-10T02:02:31.685Z,18.70
2018-08-10T02:05:02.647Z,18.81
2018-08-10T02:07:37.125Z,18.50
2018-08-10T02:10:12.419Z,18.55
2018-08-10T02:12:44.460Z,18.47
2018-08-10T02:15:17.757Z,18.46
2018-08-10T02:20:33.605Z,18.48
2018-08-10T02:23:04.589Z,18.66
2018-08-10T02:25:35.529Z,18.46
2018-08-10T02:28:06.490Z,18.25
2018-08-10T02:30:37.500Z,18.07
2018-08-10T02:33:08.535Z,18.29
2018-08-10T02:35:39.521Z,17.94
2018-08-10T02:38:10.520Z,18.04
2018-08-10T02:40:41.487Z,18.28
2018-08-10T02:43:12.781Z,18.06
2018-08-10T02:45:43.594Z,17.97
2018-08-10T02:48:14.505Z,18.08
2018-08-10T02:50:45.489Z,17.88
2018-08-10T02:53:16.493Z,17.75
2018-08-10T02:55:47.498Z,17.59
2018-08-10T02:58:18.833Z,17.82
2018-08-10T03:00:49.656Z,17.84
2018-08-10T03:03:20.575Z,18.14
2018-08-10T03:05:51.590Z,17.66
2018-08-10T03:08:22.606Z,17.76
2018-08-10T03:10:53.545Z,17.97
2018-08-10T03:13:24.502Z,17.55
2018-08-10T03:15:55.483Z,17.41
2018-08-10T03:18:26.517Z,17.57
2018-08-10T03:20:57.477Z,17.40
2018-08-10T03:23:28.503Z,17.36
2018-08-10T03:25:59.490Z,17.31
2018-08-10T03:28:30.801Z,17.46
2018-08-10T03:31:01.614Z,17.42
2018-08-10T03:33:33.361Z,17.66
2018-08-10T03:36:04.400Z,17.74
2018-08-10T03:38:35.484Z,17.37
2018-08-10T03:41:06.573Z,17.83
2018-08-10T03:43:37.517Z,17.49
2018-08-10T03:46:08.531Z,17.21
2018-08-10T03:48:39.541Z,17.46
2018-08-10T03:51:10.517Z,17.43
2018-08-10T03:53:41.522Z,17.35
2018-08-10T03:56:12.528Z,17.38
2018-08-10T03:58:43.505Z,17.39
2018-08-10T04:01:14.521Z,17.19
2018-08-10T04:03:45.509Z,17.11
2018-08-10T04:06:16.538Z,17.60
2018-08-10T04:08:47.562Z,17.11
2018-08-10T04:11:18.519Z,17.58
2018-08-10T04:13:49.559Z,17.32
2018-08-10T04:16:20.502Z,17.85
2018-08-10T04:18:51.524Z,17.32
2018-08-10T04:21:22.531Z,17.53
2018-08-10T04:23:53.534Z,17.39
2018-08-10T04:26:24.606Z,17.43
2018-08-10T04:28:55.518Z,17.20
2018-08-10T04:31:26.642Z,17.29
2018-08-10T04:33:57.578Z,17.16
2018-08-10T04:36:29.921Z,17.26
2018-08-10T04:39:00.766Z,17.11
2018-08-10T04:41:31.923Z,17.29
2018-08-10T04:44:03.021Z,17.34
2018-08-10T04:46:34.453Z,17.39
2018-08-10T04:49:06.294Z,17.82
2018-08-10T04:51:37.372Z,17.35
2018-08-10T04:54:08.489Z,17.52
2018-08-10T04:56:39.479Z,17.45
2018-08-10T04:59:10.513Z,17.55
2018-08-10T05:01:42.212Z,17.66
2018-08-10T05:04:13.401Z,17.33
2018-08-10T05:06:44.498Z,17.32
2018-08-10T05:09:16.289Z,17.27
2018-08-10T05:11:47.378Z,17.21
2018-08-10T05:14:18.512Z,17.74
2018-08-10T05:16:49.678Z,17.53
2018-08-10T05:19:20.604Z,17.14
2018-08-10T05:21:51.573Z,17.22
2018-08-10T05:24:22.602Z,17.36
2018-08-10T05:26:53.581Z,17.69
2018-08-10T05:29:24.541Z,17.76
2018-08-10T05:31:55.513Z,17.65
2018-08-10T05:34:26.550Z,17.72
2018-08-10T05:36:57.544Z,17.51
2018-08-10T05:39:28.518Z,17.63
2018-08-10T05:41:59.512Z,17.76
2018-08-10T05:44:30.497Z,17.74
2018-08-10T05:47:01.586Z,17.59
2018-08-10T05:49:32.586Z,17.90
2018-08-10T05:52:03.569Z,18.01
2018-08-10T05:54:34.608Z,17.49
2018-08-10T05:57:06.426Z,17.77
2018-08-10T05:59:37.570Z,17.74
2018-08-10T06:02:08.686Z,17.65
2018-08-10T06:04:39.680Z,17.78
2018-08-10T06:07:10.588Z,17.99
2018-08-10T06:09:41.574Z,18.09
2018-08-10T06:12:12.553Z,18.26
2018-08-10T06:14:43.522Z,18.19
2018-08-10T06:17:14.515Z,18.03
2018-08-10T06:19:45.563Z,18.45
2018-08-10T06:22:16.480Z,18.54
2018-08-10T06:24:47.489Z,18.68
2018-08-10T06:27:18.557Z,18.70
2018-08-10T06:29:49.523Z,18.51
2018-08-10T06:32:21.345Z,18.48
2018-08-10T06:34:52.398Z,18.38
2018-08-10T06:37:23.521Z,18.27
2018-08-10T06:39:54.641Z,18.73
2018-08-10T06:42:25.508Z,18.61
2018-08-10T06:44:56.601Z,18.60
2018-08-10T06:47:27.738Z,18.83
2018-08-10T06:49:58.599Z,18.65
2018-08-10T06:52:29.559Z,18.81
2018-08-10T06:55:00.497Z,18.71
2018-08-10T06:57:31.464Z,18.98
2018-08-10T07:00:02.665Z,18.74
2018-08-10T07:02:33.547Z,18.85
2018-08-10T07:05:04.515Z,18.85
2018-08-10T07:07:35.534Z,19.05
2018-08-10T07:10:08.324Z,19.00
2018-08-10T07:12:39.544Z,19.33
2018-08-10T07:15:10.497Z,18.88
2018-08-10T07:17:41.629Z,19.43
2018-08-10T07:20:12.557Z,19.27
2018-08-10T07:22:43.509Z,19.46
2018-08-10T07:25:14.486Z,19.64
2018-08-10T07:27:45.510Z,19.57
2018-08-10T07:30:16.458Z,19.54
2018-08-10T07:32:47.463Z,19.89
2018-08-10T07:35:18.472Z,19.85
2018-08-10T07:37:49.472Z,19.73
2018-08-10T07:40:20.498Z,19.86
2018-08-10T07:42:51.523Z,19.90
2018-08-10T07:45:22.522Z,19.85
2018-08-10T07:47:53.488Z,20.24
2018-08-10T07:50:24.518Z,19.95
2018-08-10T07:52:55.487Z,19.91
2018-08-10T07:55:26.504Z,20.07
2018-08-10T07:57:57.567Z,20.24
2018-08-10T08:00:28.569Z,20.31
2018-08-10T08:02:59.549Z,20.06
2018-08-10T08:05:30.523Z,20.05
2018-08-10T08:08:01.524Z,20.31
2018-08-10T08:10:32.577Z,20.06
2018-08-10T08:13:03.473Z,20.13
2018-08-10T08:15:34.474Z,20.14
2018-08-10T08:18:05.550Z,20.54
2018-08-10T08:20:38.380Z,20.79
2018-08-10T08:23:09.470Z,20.63
2018-08-10T08:25:40.574Z,20.64
2018-08-10T08:28:11.473Z,20.99
2018-08-10T08:30:42.494Z,21.09
2018-08-10T08:33:13.489Z,20.94
2018-08-10T08:35:44.524Z,21.47
2018-08-10T08:38:38.746Z,21.85
2018-08-10T08:41:10.683Z,21.53
2018-08-10T08:46:04.434Z,22.04
2018-08-10T08:48:36.832Z,22.95
2018-08-10T08:51:10.574Z,23.37
2018-08-10T08:53:41.489Z,23.15
2018-08-10T08:56:17.025Z,22.45
2018-08-10T08:58:49.499Z,22.82
2018-08-10T09:01:20.495Z,23.10
2018-08-10T09:05:07.801Z,22.96
2018-08-10T09:07:39.505Z,22.84
2018-08-10T09:10:16.390Z,22.18
2018-08-10T09:12:47.382Z,24.33
2018-08-10T09:15:20.013Z,23.84
2018-08-10T09:17:51.285Z,23.08
2018-08-10T09:20:22.496Z,24.56
2018-08-10T09:22:53.500Z,24.49
2018-08-10T09:25:24.473Z,24.75
2018-08-10T09:27:55.481Z,23.52
2018-08-10T09:30:26.473Z,23.25
2018-08-10T09:32:57.529Z,24.87
2018-08-10T09:35:28.506Z,24.15
2018-08-10T09:37:59.518Z,23.55
2018-08-10T09:40:30.577Z,23.27
2018-08-10T09:43:01.498Z,23.16
2018-08-10T09:45:32.514Z,22.76
2018-08-10T09:48:03.497Z,23.61
2018-08-10T09:50:34.494Z,23.25
2018-08-10T09:53:06.389Z,24.05
2018-08-10T09:55:38.584Z,23.54
2018-08-10T09:58:13.625Z,23.88
2018-08-10T10:00:50.022Z,24.12
2018-08-10T10:03:24.550Z,23.57
2018-08-10T10:05:57.033Z,24.38
2018-08-10T10:08:28.399Z,23.73
2018-08-10T10:10:59.517Z,23.49
2018-08-10T10:13:30.476Z,23.06
2018-08-10T10:16:01.494Z,22.91
2018-08-10T10:18:32.504Z,22.38
2018-08-10T10:21:03.531Z,23.16
2018-08-10T10:23:34.609Z,22.81
2018-08-10T10:26:05.681Z,22.32
2018-08-10T10:28:36.566Z,22.31
2018-08-10T10:31:07.554Z,23.60
2018-08-10T10:33:38.529Z,23.27
2018-08-10T10:36:09.483Z,23.41
2018-08-10T10:38:40.593Z,23.87
2018-08-10T10:41:12.526Z,24.38
2018-08-10T10:43:43.501Z,24.39
2018-08-10T10:46:14.493Z,23.75
2018-08-10T10:48:45.529Z,24.06
2018-08-10T10:51:16.592Z,23.96
2018-08-10T10:53:47.481Z,23.96
2018-08-10T10:56:18.437Z,24.27
2018-08-10T10:58:50.205Z,23.63
2018-08-10T11:01:21.349Z,23.80
2018-08-10T11:03:52.381Z,24.07
2018-08-10T11:06:23.516Z,24.38
2018-08-10T11:08:54.492Z,24.75
2018-08-10T11:11:25.502Z,25.36
2018-08-10T11:13:56.489Z,25.10
2018-08-10T11:16:27.476Z,25.56
2018-08-10T11:18:58.525Z,25.81
2018-08-10T11:21:29.852Z,26.13
2018-08-10T11:24:01.268Z,26.04
2018-08-10T11:26:32.383Z,25.34
2018-08-10T11:29:03.489Z,25.85
2018-08-10T11:31:34.474Z,27.00
2018-08-10T11:34:05.530Z,26.71
2018-08-10T11:36:36.536Z,26.90
2018-08-10T11:39:11.769Z,27.02
2018-08-10T11:41:42.624Z,26.57
2018-08-10T11:44:13.557Z,25.81
2018-08-10T11:46:44.588Z,25.74
2018-08-10T11:49:15.566Z,26.81
2018-08-10T11:51:46.506Z,27.14
2018-08-10T11:54:17.496Z,28.00
2018-08-10T11:56:48.485Z,28.27
2018-08-10T11:59:19.546Z,27.65
2018-08-10T12:01:50.511Z,27.29
2018-08-10T12:04:21.530Z,27.46
2018-08-10T12:06:52.509Z,28.85
2018-08-10T12:09:23.534Z,28.94
2018-08-10T12:11:54.497Z,28.46
2018-08-10T12:14:25.525Z,28.27
2018-08-10T12:16:56.473Z,29.42
2018-08-10T12:19:27.499Z,28.34
2018-08-10T12:21:58.508Z,28.77
2018-08-10T12:24:29.480Z,28.01
2018-08-10T12:27:00.487Z,27.08
2018-08-10T12:29:31.491Z,26.18
2018-08-10T12:32:02.507Z,26.53
2018-08-10T12:34:34.023Z,26.11
2018-08-10T12:37:05.299Z,25.52
2018-08-10T12:39:36.493Z,27.45
2018-08-10T12:42:07.489Z,27.74
2018-08-10T12:44:38.498Z,25.92
2018-08-10T12:47:09.564Z,25.83
2018-08-10T12:49:40.521Z,26.46
2018-08-10T12:52:11.525Z,25.21
2018-08-10T12:54:42.489Z,25.33
2018-08-10T12:57:13.558Z,25.78
2018-08-10T12:59:44.520Z,27.33
2018-08-10T13:02:15.542Z,25.44
2018-08-10T13:04:46.535Z,27.06
2018-08-10T13:07:17.590Z,27.93
2018-08-10T13:09:48.540Z,28.59
2018-08-10T13:12:19.692Z,27.81
2018-08-10T13:17:35.662Z,27.43
2018-08-10T13:20:09.722Z,28.39
2018-08-10T13:22:40.553Z,27.05
2018-08-10T13:25:12.204Z,27.91
2018-08-10T13:27:43.526Z,27.20
2018-08-10T13:30:14.528Z,26.06
2018-08-10T13:32:45.526Z,26.45
2018-08-10T13:35:16.545Z,25.62
2018-08-10T13:37:47.497Z,26.46
2018-08-10T13:40:18.557Z,25.82
2018-08-10T13:42:49.578Z,25.51
2018-08-10T13:45:20.524Z,25.68
2018-08-10T13:47:51.525Z,25.23
2018-08-10T13:50:22.619Z,24.53
2018-08-10T13:52:53.606Z,24.72
2018-08-10T13:55:24.541Z,25.00
2018-08-10T13:57:55.501Z,25.27
2018-08-10T14:00:27.205Z,24.96
2018-08-10T14:02:58.396Z,25.06
2018-08-10T14:05:29.528Z,24.48
2018-08-10T14:08:00.503Z,24.63
2018-08-10T14:10:31.538Z,24.25
2018-08-10T14:13:02.499Z,24.16
2018-08-10T14:15:33.538Z,24.07
2018-08-10T14:18:04.646Z,24.06
2018-08-10T14:20:35.613Z,24.29
2018-08-10T14:23:06.526Z,24.18
2018-08-10T14:25:37.643Z,24.30
2018-08-10T14:28:08.577Z,24.50
2018-08-10T14:30:39.709Z,25.27
2018-08-10T14:33:10.640Z,25.21
2018-08-10T14:35:41.615Z,25.52
2018-08-10T14:38:12.502Z,25.60
2018-08-10T14:40:43.516Z,26.71
2018-08-10T14:43:14.562Z,27.10
2018-08-10T14:45:45.605Z,27.23
2018-08-10T14:48:16.553Z,25.71
2018-08-10T14:50:47.666Z,26.65
2018-08-10T14:53:18.621Z,26.99
2018-08-10T14:55:50.397Z,26.98
2018-08-10T14:58:21.603Z,27.33
2018-08-10T15:00:52.575Z,27.60
2018-08-10T15:03:23.512Z,27.13
2018-08-10T15:05:54.517Z,27.04
2018-08-10T15:08:25.492Z,27.83
2018-08-10T15:10:56.576Z,27.71
2018-08-10T15:13:28.683Z,28.31
2018-08-10T15:15:59.561Z,27.51
2018-08-10T15:18:30.589Z,27.35
2018-08-10T15:21:01.513Z,27.47
2018-08-10T15:23:32.559Z,27.52
2018-08-10T15:26:03.597Z,27.13
2018-08-10T15:28:34.528Z,27.08
2018-08-10T15:31:05.530Z,27.00
2018-08-10T15:33:36.520Z,26.81
2018-08-10T15:36:07.693Z,27.10
2018-08-10T15:38:38.616Z,26.51
2018-08-10T15:41:09.637Z,26.07
2018-08-10T15:43:40.583Z,25.96
2018-08-10T15:46:11.526Z,26.28
2018-08-10T15:48:42.550Z,26.33
2018-08-10T15:51:13.501Z,26.35
2018-08-10T15:53:44.516Z,25.78
2018-08-10T15:56:15.599Z,26.02
2018-08-10T15:58:46.509Z,26.34
2018-08-10T16:01:17.520Z,26.30
2018-08-10T16:03:48.508Z,25.92
2018-08-10T16:06:19.577Z,25.53
2018-08-10T16:08:50.514Z,25.90
2018-08-10T16:11:21.512Z,25.68
2018-08-10T16:13:52.548Z,26.10
2018-08-10T16:16:23.509Z,26.00
2018-08-10T16:20:42.488Z,25.72
2018-08-10T16:23:13.492Z,25.46
2018-08-10T16:25:44.596Z,25.65
2018-08-10T16:28:15.540Z,25.36
2018-08-10T16:30:46.546Z,25.64
2018-08-10T16:36:00.537Z,25.35
2018-08-10T16:38:31.522Z,25.38
2018-08-10T16:41:02.525Z,25.10
2018-08-10T16:43:33.522Z,24.99
2018-08-10T16:46:04.666Z,24.71
2018-08-10T16:48:35.577Z,24.87
2018-08-10T16:51:06.501Z,24.88
2018-08-10T16:53:37.519Z,24.82
2018-08-10T16:56:08.504Z,24.77
2018-08-10T16:58:39.555Z,24.90
2018-08-10T17:01:10.774Z,24.90
2018-08-10T17:03:41.645Z,24.96
2018-08-10T17:06:12.569Z,24.97
2018-08-10T17:08:43.530Z,25.06
2018-08-10T17:11:14.512Z,25.07
2018-08-10T17:13:45.545Z,25.06
2018-08-10T17:16:16.537Z,24.83
2018-08-10T17:21:31.909Z,24.91
2018-08-10T17:26:46.511Z,24.65
2018-08-10T17:29:18.253Z,24.38
2018-08-10T17:31:49.375Z,24.56
2018-08-10T17:34:20.429Z,24.33
2018-08-10T17:36:51.493Z,24.24
2018-08-10T17:39:22.578Z,24.44
2018-08-10T17:41:53.653Z,24.29
2018-08-10T17:44:24.578Z,24.48
2018-08-10T17:46:55.632Z,24.17
2018-08-10T17:49:26.547Z,24.16
2018-08-10T17:51:57.505Z,24.16
2018-08-10T17:54:30.296Z,24.03
2018-08-10T17:57:00.440Z,24.09
2018-08-10T17:59:32.384Z,23.96
2018-08-10T18:02:03.541Z,23.94
2018-08-10T18:04:34.522Z,23.89
2018-08-10T18:07:06.020Z,23.89
2018-08-10T18:12:19.681Z,23.73
2018-08-10T18:14:50.617Z,23.74
2018-08-10T18:17:21.752Z,23.73
2018-08-10T18:19:52.592Z,23.79
2018-08-10T18:22:23.484Z,23.72
2018-08-10T18:24:54.498Z,23.73
2018-08-10T18:27:25.619Z,23.56
2018-08-10T18:29:56.500Z,23.53
2018-08-10T18:32:27.626Z,23.60
2018-08-10T18:34:58.543Z,23.58
2018-08-10T18:37:29.545Z,23.49
2018-08-10T18:40:00.497Z,23.50
2018-08-10T18:42:31.505Z,23.49
2018-08-10T18:45:02.539Z,23.36
2018-08-10T18:47:33.481Z,23.44
2018-08-10T18:50:05.226Z,23.34
2018-08-10T18:52:37.291Z,23.33
2018-08-10T18:55:09.626Z,23.27
2018-08-10T18:57:40.543Z,23.35
2018-08-10T19:00:17.444Z,23.21
2018-08-10T19:02:48.550Z,23.26
2018-08-10T19:05:19.626Z,23.31
2018-08-10T19:07:50.833Z,23.21
2018-08-10T19:10:24.281Z,23.11
2018-08-10T19:12:54.426Z,23.07
2018-08-10T19:15:25.497Z,23.04
2018-08-10T19:17:56.499Z,22.93
2018-08-10T19:20:27.505Z,23.06
2018-08-10T19:22:58.514Z,22.85
2018-08-10T19:25:29.511Z,22.92
2018-08-10T19:28:00.529Z,22.87
2018-08-10T19:30:31.560Z,22.80
2018-08-10T19:33:02.525Z,22.62
2018-08-10T19:35:33.511Z,22.65
2018-08-10T19:38:04.496Z,22.69
2018-08-10T19:40:35.518Z,22.58
2018-08-10T19:43:06.582Z,22.63
2018-08-10T19:45:37.500Z,22.49
2018-08-10T19:48:08.717Z,22.46
2018-08-10T19:50:39.596Z,22.44
2018-08-10T19:53:10.517Z,22.40
2018-08-10T19:55:41.496Z,22.46
2018-08-10T19:58:13.548Z,22.41
2018-08-10T20:00:44.557Z,22.34
2018-08-10T20:03:15.496Z,22.26
2018-08-10T20:05:46.506Z,22.21
2018-08-10T20:08:17.548Z,22.21
2018-08-10T20:10:48.505Z,22.22
2018-08-10T20:13:19.495Z,22.18
2018-08-10T20:15:50.594Z,22.09
2018-08-10T20:18:21.553Z,22.20
2018-08-10T20:23:35.594Z,21.98
2018-08-10T20:28:51.429Z,22.07
2018-08-10T20:31:22.661Z,21.94
2018-08-10T20:33:53.589Z,21.91
2018-08-10T20:36:24.509Z,21.90
2018-08-10T20:38:55.567Z,21.91
2018-08-10T20:41:26.497Z,21.86
2018-08-10T20:43:57.490Z,21.84
2018-08-10T20:46:28.518Z,21.87
2018-08-10T20:48:59.477Z,21.71
2018-08-10T20:51:30.502Z,21.86
2018-08-10T20:54:01.653Z,21.72
2018-08-10T20:56:32.589Z,21.75
2018-08-10T20:59:03.666Z,21.62
2018-08-10T21:01:34.596Z,21.59
2018-08-10T21:04:05.476Z,21.51
2018-08-10T21:06:37.563Z,21.47
2018-08-10T21:09:13.405Z,21.53
2018-08-10T21:11:44.764Z,21.43
2018-08-10T21:14:15.629Z,21.38
2018-08-10T21:16:46.593Z,21.30
2018-08-10T21:19:17.470Z,21.25
2018-08-10T21:21:48.515Z,21.11
2018-08-10T21:24:19.468Z,21.14
2018-08-10T21:26:50.504Z,21.28
2018-08-10T21:29:21.465Z,21.22
2018-08-10T21:31:52.504Z,21.19
2018-08-10T21:34:23.646Z,21.14
2018-08-10T21:36:54.630Z,21.07
2018-08-10T21:39:25.480Z,21.07
2018-08-10T21:41:56.527Z,21.04
2018-08-10T21:44:27.475Z,21.11
2018-08-10T21:46:58.474Z,21.00
2018-08-10T21:49:29.457Z,21.01
2018-08-10T21:52:00.508Z,20.91
2018-08-10T21:54:31.559Z,20.91
2018-08-10T21:57:02.551Z,20.94
2018-08-10T21:59:33.485Z,20.87
2018-08-10T22:02:04.573Z,20.86
2018-08-10T22:04:35.485Z,20.85
2018-08-10T22:07:06.605Z,20.86
2018-08-10T22:09:37.623Z,20.72
2018-08-10T22:12:08.572Z,20.82
2018-08-10T22:14:44.621Z,20.81
2018-08-10T22:17:20.749Z,20.77
2018-08-10T22:19:51.561Z,20.77
2018-08-10T22:22:22.545Z,20.78
2018-08-10T22:24:53.501Z,20.88
2018-08-10T22:27:24.482Z,20.83
2018-08-10T22:29:55.513Z,20.84
2018-08-10T22:32:26.493Z,20.81
2018-08-10T22:34:57.505Z,20.80
2018-08-10T22:37:28.493Z,20.88
2018-08-10T22:39:59.520Z,20.80
2018-08-10T22:42:30.505Z,20.72
2018-08-10T22:45:01.489Z,20.65
2018-08-10T22:47:32.490Z,20.34
2018-08-10T22:50:03.498Z,20.13
2018-08-10T22:52:34.505Z,20.28
2018-08-10T22:55:06.785Z,20.24
2018-08-10T22:57:37.701Z,20.05
2018-08-10T23:00:08.617Z,20.12
2018-08-10T23:02:39.524Z,20.00
2018-08-10T23:05:10.555Z,19.98
2018-08-10T23:07:41.501Z,20.06
2018-08-10T23:10:14.541Z,20.05
2018-08-10T23:12:45.769Z,20.01
2018-08-10T23:15:16.592Z,19.93
2018-08-10T23:17:47.793Z,19.93
2018-08-10T23:20:18.671Z,20.02
2018-08-10T23:22:50.272Z,19.94
2018-08-10T23:25:20.372Z,20.50
2018-08-10T23:27:51.535Z,20.34
2018-08-10T23:30:22.536Z,20.02
2018-08-10T23:32:53.501Z,20.00
2018-08-10T23:35:24.481Z,20.25
2018-08-10T23:37:55.497Z,20.18
2018-08-10T23:40:26.486Z,20.02
2018-08-10T23:42:57.503Z,19.98
2018-08-10T23:45:28.506Z,20.02
2018-08-10T23:47:59.534Z,20.13
2018-08-10T23:50:30.510Z,19.97
2018-08-10T23:53:01.510Z,20.12
2018-08-10T23:55:32.497Z,19.80
2018-08-10T23:58:03.544Z,20.09
